Time;durP1;ratioP1;P1;durP2;ratioP2;P2;SDS_P1;SDS_P2;PMS_P1;PMS_P2;Temp;Humidity;BMP_temperature;BMP_pressure;BME280_temperature;BME280_humidity;BME280_pressure;Samples;Min_cycle;Max_cycle;Signal;HPM_P1;HPM_P2
2022/01/09 00:00:38;;;;;;;15.65;8.43;;;;;;;-2.36;81.52;97947.25;5078457;28;20502;-64
2022/01/09 00:03:24;;;;;;;19.83;8.85;;;;;;;-2.31;82.03;97954.81;5093091;28;20047;-64
2022/01/09 00:06:09;;;;;;;16.38;9.43;;;;;;;-2.66;83.40;97932.69;5093216;28;20051;-64
2022/01/09 00:08:56;;;;;;;18.90;9.77;;;;;;;-2.64;83.73;97948.91;5099361;28;20161;-64
2022/01/09 00:11:42;;;;;;;23.02;9.43;;;;;;;-2.70;84.38;97940.53;5078166;28;20059;-65
2022/01/09 00:14:27;;;;;;;16.05;8.50;;;;;;;-2.77;84.72;97932.16;5093466;28;20047;-64
2022/01/09 00:17:13;;;;;;;15.65;9.05;;;;;;;-2.60;82.87;97921.44;5099072;28;20063;-64
2022/01/09 00:19:59;;;;;;;18.48;8.68;;;;;;;-2.80;82.68;97906.59;5093240;28;20043;-64
2022/01/09 00:22:48;;;;;;;22.67;9.68;;;;;;;-2.73;82.47;97923.50;5093347;28;20396;-65
2022/01/09 00:25:34;;;;;;;18.52;8.77;;;;;;;-2.63;81.36;97901.81;5092975;28;20054;-65
2022/01/09 00:28:20;;;;;;;18.33;9.18;;;;;;;-2.48;80.52;97899.72;5093350;28;20054;-64
2022/01/09 00:31:06;;;;;;;19.90;8.98;;;;;;;-2.63;80.96;97891.56;5077810;28;20047;-65
2022/01/09 00:33:52;;;;;;;17.38;8.57;;;;;;;-2.63;81.32;97896.69;5083786;28;20055;-64
2022/01/09 00:36:37;;;;;;;15.10;8.68;;;;;;;-2.92;83.23;97892.41;5092818;28;20510;-65
2022/01/09 00:39:23;;;;;;;19.33;9.00;;;;;;;-2.96;83.43;97876.28;5092959;28;20055;-64
2022/01/09 00:42:09;;;;;;;18.30;9.43;;;;;;;-2.97;84.23;97880.53;5055341;28;20411;-64
2022/01/09 00:44:55;;;;;;;18.17;8.52;;;;;;;-2.90;84.45;97886.34;5077564;28;20051;-64
2022/01/09 00:47:41;;;;;;;17.88;9.48;;;;;;;-3.31;87.91;97880.63;5077578;28;20067;-63
2022/01/09 00:50:28;;;;;;;22.40;10.45;;;;;;;-3.56;89.79;97876.13;5093067;28;20047;-64
2022/01/09 00:53:14;;;;;;;19.05;9.70;;;;;;;-3.42;89.11;97875.75;5093491;28;20051;-65
2022/01/09 00:56:00;;;;;;;19.23;9.73;;;;;;;-3.58;89.42;97873.59;5092889;28;20043;-64
2022/01/09 00:58:46;;;;;;;17.45;9.25;;;;;;;-3.63;90.33;97858.34;5092947;28;20062;-64
2022/01/09 01:01:32;;;;;;;19.90;9.30;;;;;;;-3.75;91.08;97864.63;5093104;28;20403;-65
2022/01/09 01:04:18;;;;;;;19.42;9.90;;;;;;;-3.66;90.27;97861.00;5077636;28;20051;-65
2022/01/09 01:07:04;;;;;;;18.17;9.07;;;;;;;-3.62;89.68;97860.03;5077698;28;20509;-65
2022/01/09 01:09:50;;;;;;;19.02;9.80;;;;;;;-3.75;89.67;97851.81;5093063;28;20051;-63
2022/01/09 01:12:36;;;;;;;18.40;8.98;;;;;;;-3.66;89.00;97847.34;5077850;28;20059;-64
2022/01/09 01:15:22;;;;;;;23.98;9.98;;;;;;;-3.83;88.81;97846.91;5080733;28;20059;-64
2022/01/09 01:18:08;;;;;;;21.20;10.20;;;;;;;-4.19;88.81;97805.13;5102658;28;20058;-65
2022/01/09 01:20:53;;;;;;;17.88;10.13;;;;;;;-4.02;88.40;97823.47;5087512;28;20178;-64
2022/01/09 01:23:40;;;;;;;20.60;10.70;;;;;;;-4.16;89.01;97823.78;5102748;28;20047;-64
2022/01/09 01:26:26;;;;;;;18.25;10.05;;;;;;;-4.09;89.45;97809.97;5096494;28;20047;-65
2022/01/09 01:29:11;;;;;;;20.83;10.05;;;;;;;-4.08;88.89;97785.25;5096343;28;20059;-64
2022/01/09 01:31:57;;;;;;;23.25;10.55;;;;;;;-4.17;89.27;97790.56;5096063;28;20071;-65
2022/01/09 01:34:43;;;;;;;20.63;10.02;;;;;;;-3.94;88.83;97795.13;5096119;28;20051;-64
2022/01/09 01:37:29;;;;;;;21.45;10.73;;;;;;;-4.23;90.52;97799.25;5086992;28;20051;-64
2022/01/09 01:40:18;;;;;;;21.27;10.90;;;;;;;-4.18;91.00;97801.69;5096281;28;20047;-65
2022/01/09 01:43:03;;;;;;;21.80;11.68;;;;;;;-4.08;90.16;97801.41;5086587;28;20059;-63
2022/01/09 01:45:50;;;;;;;26.42;13.05;;;;;;;-4.07;90.02;97797.16;5095890;28;20051;-63
2022/01/09 01:48:35;;;;;;;24.75;12.85;;;;;;;-4.29;91.14;97771.25;5080678;28;20502;-64
2022/01/09 01:51:22;;;;;;;22.75;11.02;;;;;;;-4.17;91.35;97788.84;5086601;28;20051;-64
2022/01/09 01:54:10;;;;;;;30.17;13.38;;;;;;;-4.16;91.43;97794.81;5080643;28;20055;-64
2022/01/09 01:56:56;;;;;;;23.45;12.00;;;;;;;-4.14;91.52;97791.34;5066379;28;20118;-65
2022/01/09 01:59:43;;;;;;;24.48;11.52;;;;;;;-4.13;91.01;97772.53;5095440;28;20529;-64
2022/01/09 02:02:29;;;;;;;20.48;11.18;;;;;;;-3.95;90.12;97778.09;5080445;28;20063;-65
2022/01/09 02:05:15;;;;;;;26.05;12.13;;;;;;;-4.18;90.67;97776.09;5095378;28;20059;-65
2022/01/09 02:08:02;;;;;;;26.45;12.88;;;;;;;-4.36;92.12;97758.59;5080397;28;20059;-64
2022/01/09 02:10:48;;;;;;;26.55;12.55;;;;;;;-4.46;93.13;97759.69;5095471;28;20043;-64
2022/01/09 02:13:36;;;;;;;22.85;12.07;;;;;;;-4.43;92.70;97759.63;5080499;28;20051;-64
2022/01/09 02:16:22;;;;;;;25.75;12.70;;;;;;;-4.64;92.23;97726.00;5095513;28;20043;-64
2022/01/09 02:19:11;;;;;;;26.75;11.45;;;;;;;-4.26;90.88;97748.16;5095314;28;20498;-64
2022/01/09 02:21:59;;;;;;;22.58;11.75;;;;;;;-4.36;90.36;97753.47;5080011;28;20059;-66
2022/01/09 02:24:44;;;;;;;24.55;12.50;;;;;;;-4.45;90.80;97736.63;5094722;28;20043;-64
2022/01/09 02:27:30;;;;;;;22.42;10.75;;;;;;;-4.63;91.81;97725.13;5080223;28;20059;-64
2022/01/09 02:30:16;;;;;;;24.17;11.60;;;;;;;-4.23;90.33;97736.09;5094870;28;20502;-64
2022/01/09 02:33:06;;;;;;;25.77;12.05;;;;;;;-4.51;91.35;97735.94;5079820;28;20055;-63
2022/01/09 02:35:52;;;;;;;23.27;11.30;;;;;;;-4.53;92.07;97720.63;5094933;28;20503;-63
2022/01/09 02:38:38;;;;;;;24.52;11.52;;;;;;;-4.58;91.89;97725.00;5079803;28;20051;-63
2022/01/09 02:41:25;;;;;;;26.77;12.45;;;;;;;-4.69;92.59;97720.16;5094802;28;20066;-64
2022/01/09 02:44:11;;;;;;;26.67;12.40;;;;;;;-4.72;92.82;97713.38;5077271;28;20051;-64
2022/01/09 02:47:07;;;;;;;24.73;11.43;;;;;;;-4.70;92.41;97691.19;5092051;28;20470;-64
2022/01/09 02:49:54;;;;;;;23.45;11.93;;;;;;;-4.76;92.51;97704.13;5094765;28;20502;-64
2022/01/09 02:52:50;;;;;;;28.63;12.63;;;;;;;-4.42;91.11;97714.44;5093835;28;20486;-64
2022/01/09 02:55:35;;;;;;;25.02;11.77;;;;;;;-4.62;91.77;97721.69;5094830;28;20518;-64
2022/01/09 02:58:22;;;;;;;23.17;11.60;;;;;;;-4.64;92.37;97710.69;5094401;28;20047;-64
2022/01/09 03:01:10;;;;;;;26.20;12.57;;;;;;;-4.37;91.13;97700.63;5100670;28;20173;-64
2022/01/09 03:03:56;;;;;;;24.58;12.07;;;;;;;-4.39;91.40;97693.91;5094612;28;20055;-64
2022/01/09 03:06:41;;;;;;;29.88;13.10;;;;;;;-4.78;93.08;97682.88;5094298;28;20055;-63
2022/01/09 03:09:27;;;;;;;31.30;13.55;;;;;;;-4.88;95.25;97681.41;5094414;28;20058;-64
2022/01/09 03:12:13;;;;;;;29.40;13.13;;;;;;;-4.92;96.41;97685.75;5090717;28;20063;-64
2022/01/09 03:15:00;;;;;;;27.73;13.73;;;;;;;-5.03;96.50;97668.13;5058883;28;20052;-64
2022/01/09 03:17:45;;;;;;;24.55;12.27;;;;;;;-4.87;96.75;97675.41;5074382;28;20055;-64
2022/01/09 03:20:31;;;;;;;27.42;13.07;;;;;;;-4.95;97.07;97673.03;5087991;28;20063;-63
2022/01/09 03:23:17;;;;;;;29.42;13.52;;;;;;;-4.92;97.63;97664.47;5093303;28;20426;-64
2022/01/09 03:26:03;;;;;;;27.13;13.27;;;;;;;-4.87;96.62;97657.53;5094350;28;20055;-66
2022/01/09 03:28:49;;;;;;;26.77;13.43;;;;;;;-4.94;96.61;97649.16;5099153;28;20074;-64
2022/01/09 03:31:36;;;;;;;32.22;12.82;;;;;;;-4.82;96.42;97645.47;5094004;28;20055;-64
2022/01/09 03:34:21;;;;;;;25.05;11.32;;;;;;;-4.80;95.78;97632.66;5094070;28;20051;-64
2022/01/09 03:37:07;;;;;;;21.13;11.15;;;;;;;-4.92;95.50;97644.88;5093130;28;20055;-64
2022/01/09 03:39:54;;;;;;;27.05;11.93;;;;;;;-4.96;95.29;97618.53;5094036;28;20051;-63
2022/01/09 03:42:40;;;;;;;25.45;12.30;;;;;;;-4.66;93.42;97633.16;5094643;28;20051;-64
2022/01/09 03:45:26;;;;;;;24.02;11.90;;;;;;;-4.68;93.12;97628.97;5093465;28;20059;-63
2022/01/09 03:48:12;;;;;;;25.50;11.50;;;;;;;-4.57;92.34;97630.38;5093493;28;20055;-64
2022/01/09 03:50:58;;;;;;;23.40;11.95;;;;;;;-4.79;93.23;97619.00;5093441;28;20055;-63
2022/01/09 03:53:43;;;;;;;24.60;10.68;;;;;;;-4.88;94.51;97613.22;5069816;28;20047;-63
2022/01/09 03:56:29;;;;;;;18.38;10.30;;;;;;;-4.71;93.48;97611.97;5092362;28;20073;-63
2022/01/09 03:59:16;;;;;;;22.75;11.52;;;;;;;-4.54;91.87;97610.72;5093497;28;20498;-64
2022/01/09 04:02:02;;;;;;;23.00;11.23;;;;;;;-4.59;91.77;97608.28;5093158;28;20079;-64
2022/01/09 04:04:47;;;;;;;23.92;11.65;;;;;;;-4.95;93.79;97604.91;5093145;28;20043;-64
2022/01/09 04:07:33;;;;;;;30.30;12.38;;;;;;;-5.04;95.20;97596.63;5083710;28;20055;-65
2022/01/09 04:10:22;;;;;;;28.33;13.10;;;;;;;-5.10;96.28;97597.59;5093174;28;20059;-64
2022/01/09 04:13:10;;;;;;;27.85;12.55;;;;;;;-5.00;96.37;97593.09;5093014;28;20490;-65
2022/01/09 04:15:58;;;;;;;22.75;12.00;;;;;;;-5.22;97.15;97597.00;5092872;28;20071;-64
2022/01/09 04:18:44;;;;;;;22.33;11.95;;;;;;;-5.17;97.26;97596.88;5093168;28;20055;-63
2022/01/09 04:21:30;;;;;;;24.27;12.07;;;;;;;-5.07;96.38;97590.69;5093310;28;20043;-63
2022/01/09 04:24:16;;;;;;;23.02;12.40;;;;;;;-5.08;96.23;97583.91;5084153;28;20399;-64
2022/01/09 04:27:02;;;;;;;19.77;11.45;;;;;;;-5.09;96.17;97589.03;5092871;28;20047;-64
2022/01/09 04:29:48;;;;;;;23.23;11.70;;;;;;;-5.17;96.02;97584.13;5093086;28;20510;-64
2022/01/09 04:32:34;;;;;;;24.10;11.63;;;;;;;-5.17;96.15;97588.41;5093013;28;20047;-64
2022/01/09 04:35:20;;;;;;;21.95;10.55;;;;;;;-5.29;96.83;97577.59;5099350;28;20055;-65
2022/01/09 04:38:06;;;;;;;21.75;11.18;;;;;;;-5.27;97.00;97569.91;5091836;28;20047;-64
2022/01/09 04:40:52;;;;;;;24.02;11.73;;;;;;;-5.34;97.14;97575.16;5092763;28;20051;-63
2022/01/09 04:43:37;;;;;;;23.02;11.65;;;;;;;-5.29;96.85;97566.53;5098135;28;20051;-64
2022/01/09 04:46:31;;;;;;;23.30;12.00;;;;;;;-5.32;97.20;97580.22;5092853;28;20051;-64
2022/01/09 04:49:22;;;;;;;26.42;11.45;;;;;;;-5.39;97.61;97578.69;5095751;28;20450;-64
2022/01/09 04:52:12;;;;;;;26.15;12.13;;;;;;;-5.40;97.32;97552.28;5096927;28;20044;-64
2022/01/09 04:54:58;;;;;;;24.77;12.55;;;;;;;-5.37;97.21;97546.28;5096553;28;20059;-64
2022/01/09 04:57:44;;;;;;;27.23;10.95;;;;;;;-5.42;96.71;97545.56;5096807;28;20067;-64
2022/01/09 05:00:30;;;;;;;20.95;10.77;;;;;;;-5.45;97.01;97538.81;5095761;28;20067;-63
2022/01/09 05:03:18;;;;;;;24.35;12.02;;;;;;;-5.57;96.65;97520.34;5101753;28;20391;-64
2022/01/09 05:06:04;;;;;;;20.95;10.43;;;;;;;-5.70;97.06;97509.59;5096696;28;20047;-63
2022/01/09 05:08:50;;;;;;;20.48;11.55;;;;;;;-5.33;95.90;97533.41;5097120;28;20383;-64
2022/01/09 05:11:37;;;;;;;17.98;10.25;;;;;;;-5.34;95.26;97539.41;5096665;28;20059;-64
2022/01/09 05:14:22;;;;;;;27.48;11.23;;;;;;;-5.39;95.40;97538.66;5095625;28;20502;-64
2022/01/09 05:17:08;;;;;;;22.80;10.65;;;;;;;-5.30;94.58;97535.03;5095768;28;20383;-65
2022/01/09 05:19:57;;;;;;;21.60;10.20;;;;;;;-5.30;94.62;97540.16;5096338;28;20537;-65
2022/01/09 05:22:43;;;;;;;22.10;10.48;;;;;;;-5.11;93.15;97548.19;5096357;28;20047;-65
2022/01/09 05:25:29;;;;;;;24.13;12.05;;;;;;;-5.04;91.06;97532.75;5096372;28;20059;-65
2022/01/09 05:28:15;;;;;;;21.00;10.80;;;;;;;-5.05;92.32;97548.94;5095324;28;20071;-65
2022/01/09 05:31:00;;;;;;;24.13;11.13;;;;;;;-5.03;91.88;97548.03;5081001;28;20506;-64
2022/01/09 05:33:46;;;;;;;22.77;10.88;;;;;;;-4.75;90.43;97551.59;5096243;28;20399;-64
2022/01/09 05:36:33;;;;;;;19.33;10.75;;;;;;;-4.82;90.08;97530.47;5096160;28;20051;-65
2022/01/09 05:39:19;;;;;;;15.75;8.93;;;;;;;-4.85;90.67;97533.94;5096201;28;20055;-65
2022/01/09 05:42:07;;;;;;;20.30;10.00;;;;;;;-4.94;90.74;97539.28;5095081;28;20055;-64
2022/01/09 05:44:54;;;;;;;22.52;11.27;;;;;;;-5.04;91.07;97532.75;5094975;28;20051;-64
2022/01/09 05:47:39;;;;;;;22.08;10.45;;;;;;;-5.22;92.53;97532.28;5095979;28;20513;-65
2022/01/09 05:50:25;;;;;;;25.35;11.77;;;;;;;-5.41;94.19;97534.44;5096414;28;20055;-64
2022/01/09 05:53:11;;;;;;;19.00;10.30;;;;;;;-5.16;93.30;97528.75;5095956;28;20399;-64
2022/01/09 05:55:57;;;;;;;22.15;11.38;;;;;;;-5.06;91.58;97520.00;5095780;28;20055;-64
2022/01/09 05:58:44;;;;;;;19.90;10.70;;;;;;;-5.01;91.06;97515.59;5095929;28;20047;-63
2022/01/09 06:01:30;;;;;;;20.13;10.30;;;;;;;-4.85;90.17;97516.03;5094894;28;20403;-64
2022/01/09 06:04:15;;;;;;;17.98;8.90;;;;;;;-4.84;90.38;97525.41;5100458;28;20055;-64
2022/01/09 06:07:01;;;;;;;20.48;10.38;;;;;;;-4.75;89.57;97518.38;5095594;28;20055;-63
2022/01/09 06:09:47;;;;;;;18.88;9.95;;;;;;;-4.67;88.80;97530.94;5094571;28;20110;-63
2022/01/09 06:12:32;;;;;;;18.70;9.88;;;;;;;-4.75;89.04;97528.59;5094429;28;20051;-63
2022/01/09 06:15:18;;;;;;;21.42;10.80;;;;;;;-4.83;88.91;97524.50;5095309;28;20055;-64
2022/01/09 06:18:05;;;;;;;17.52;9.48;;;;;;;-4.67;88.50;97526.69;5095339;28;20051;-63
2022/01/09 06:20:51;;;;;;;20.33;9.43;;;;;;;-4.79;89.04;97522.72;5095318;28;20055;-64
2022/01/09 06:23:37;;;;;;;17.77;9.55;;;;;;;-4.83;89.40;97521.97;5095407;28;20506;-63
2022/01/09 06:26:23;;;;;;;24.35;11.65;;;;;;;-5.04;90.02;97518.22;5095348;28;20051;-64
2022/01/09 06:29:08;;;;;;;18.10;9.38;;;;;;;-5.11;90.93;97532.88;5095526;28;20075;-65
2022/01/09 06:31:54;;;;;;;27.65;10.85;;;;;;;-5.20;90.96;97531.41;5094079;28;20074;-64
2022/01/09 06:34:41;;;;;;;22.90;10.40;;;;;;;-5.23;91.11;97520.41;5095248;28;20151;-64
2022/01/09 06:37:27;;;;;;;22.90;10.45;;;;;;;-5.31;91.70;97520.59;5099831;28;20066;-64
2022/01/09 06:40:13;;;;;;;19.98;9.85;;;;;;;-5.29;91.51;97502.69;5094974;28;20047;-64
2022/01/09 06:43:00;;;;;;;19.90;10.30;;;;;;;-5.28;91.49;97529.88;5101198;28;20047;-64
2022/01/09 06:45:45;;;;;;;22.48;10.60;;;;;;;-5.36;92.12;97520.72;5094959;28;20051;-64
2022/01/09 06:48:31;;;;;;;20.58;9.77;;;;;;;-5.12;91.11;97526.09;5101048;28;20518;-63
2022/01/09 06:51:17;;;;;;;20.83;8.95;;;;;;;-5.03;89.46;97496.09;5095087;28;20078;-64
2022/01/09 06:54:03;;;;;;;21.58;10.40;;;;;;;-4.75;88.63;97526.03;5094423;28;20410;-65
2022/01/09 06:56:49;;;;;;;19.58;10.25;;;;;;;-4.53;88.07;97518.63;5094557;28;20498;-63
2022/01/09 06:59:35;;;;;;;18.42;9.43;;;;;;;-4.35;86.88;97514.72;5094542;28;20047;-64
2022/01/09 07:02:21;;;;;;;22.70;10.55;;;;;;;-4.68;87.12;97506.28;5094834;28;20055;-63
2022/01/09 07:05:07;;;;;;;20.85;10.02;;;;;;;-4.74;87.72;97514.94;5100664;28;20063;-64
2022/01/09 07:07:55;;;;;;;20.85;10.60;;;;;;;-4.88;88.24;97518.69;5093865;28;20055;-64
2022/01/09 07:10:41;;;;;;;21.48;9.95;;;;;;;-4.80;88.25;97512.53;5094293;28;20059;-64
2022/01/09 07:13:27;;;;;;;18.95;9.52;;;;;;;-4.84;87.66;97504.97;5094673;28;20455;-66
2022/01/09 07:16:14;;;;;;;22.27;10.30;;;;;;;-4.69;87.08;97505.44;5093072;28;20085;-64
2022/01/09 07:18:59;;;;;;;17.27;9.13;;;;;;;-4.41;86.62;97512.34;5094094;28;20047;-64
2022/01/09 07:21:45;;;;;;;19.63;9.90;;;;;;;-4.59;86.70;97514.53;5093909;28;20055;-65
2022/01/09 07:24:32;;;;;;;19.55;10.10;;;;;;;-4.37;85.04;97503.69;5099084;28;20055;-65
2022/01/09 07:27:17;;;;;;;21.08;9.80;;;;;;;-4.21;84.00;97501.53;5092926;28;20445;-65
2022/01/09 07:30:04;;;;;;;19.92;9.75;;;;;;;-4.00;83.04;97506.91;5098721;28;20378;-65
2022/01/09 07:32:51;;;;;;;22.10;9.30;;;;;;;-3.80;82.81;97507.22;5092823;28;20123;-64
2022/01/09 07:35:36;;;;;;;17.20;8.88;;;;;;;-3.16;80.05;97510.34;5094031;28;20051;-64
2022/01/09 07:38:22;;;;;;;17.88;9.35;;;;;;;-3.02;78.98;97494.53;5093617;28;20055;-64
2022/01/09 07:41:17;;;;;;;17.63;9.27;;;;;;;-2.70;76.37;97491.72;5093564;28;20063;-65
2022/01/09 07:44:02;;;;;;;19.13;9.70;;;;;;;-2.35;75.48;97510.19;5092865;28;20054;-65
2022/01/09 07:46:48;;;;;;;20.15;9.57;;;;;;;-2.36;75.35;97504.19;5093876;28;20447;-65
2022/01/09 07:49:34;;;;;;;20.48;9.52;;;;;;;-2.12;73.31;97508.47;5093851;28;20502;-65
2022/01/09 07:52:20;;;;;;;16.80;8.57;;;;;;;-2.57;74.34;97510.09;5092594;28;20047;-65
2022/01/09 07:55:08;;;;;;;18.42;9.18;;;;;;;-2.95;75.38;97493.41;5092482;28;20129;-64
2022/01/09 07:57:54;;;;;;;13.48;8.48;;;;;;;-2.52;77.52;97515.91;5098732;28;20507;-65
2022/01/09 08:00:43;;;;;;;17.67;8.00;;;;;;;-2.12;73.86;97509.31;5092950;28;20051;-64
2022/01/09 08:03:28;;;;;;;14.45;7.95;;;;;;;-2.57;73.87;97518.63;5092718;28;20039;-65
2022/01/09 08:06:15;;;;;;;18.20;9.40;;;;;;;-2.76;74.35;97515.88;5093754;28;20043;-65
2022/01/09 08:09:01;;;;;;;15.50;8.75;;;;;;;-3.18;74.07;97473.69;5093516;28;20403;-64
2022/01/09 08:11:46;;;;;;;15.85;8.02;;;;;;;-3.19;75.15;97502.75;5078779;28;20062;-64
2022/01/09 08:14:33;;;;;;;17.30;8.57;;;;;;;-2.88;73.85;97502.59;5093149;28;20063;-64
2022/01/09 08:17:19;;;;;;;18.90;8.65;;;;;;;-2.85;73.67;97519.56;5092284;28;20054;-64
2022/01/09 08:20:05;;;;;;;18.60;7.97;;;;;;;-3.10;74.17;97516.09;5084064;28;20502;-64
2022/01/09 08:22:51;;;;;;;15.68;7.85;;;;;;;-3.07;73.93;97529.72;5092895;28;20580;-65
2022/01/09 08:25:40;;;;;;;16.40;8.07;;;;;;;-3.20;75.45;97534.41;5098418;28;20055;-63
2022/01/09 08:28:25;;;;;;;16.13;7.35;;;;;;;-2.62;73.31;97554.69;5093229;28;20509;-64
2022/01/09 08:31:11;;;;;;;19.60;8.13;;;;;;;-2.31;71.78;97562.19;5093187;28;20118;-63
2022/01/09 08:33:57;;;;;;;17.88;8.10;;;;;;;-2.71;71.79;97562.72;5092132;28;20502;-64
2022/01/09 08:36:43;;;;;;;19.88;8.20;;;;;;;-2.72;72.58;97550.75;5092996;28;20059;-64
2022/01/09 08:39:30;;;;;;;16.75;8.57;;;;;;;-2.61;71.80;97548.66;5093136;28;20051;-65
2022/01/09 08:42:16;;;;;;;21.20;9.00;;;;;;;-3.21;74.29;97543.81;5091886;28;20047;-66
2022/01/09 08:45:09;;;;;;;17.40;9.23;;;;;;;-3.32;74.35;97538.19;5093602;28;20059;-64
2022/01/09 08:47:58;;;;;;;18.50;8.82;;;;;;;-3.42;75.02;97529.94;5092358;28;20043;-64
2022/01/09 08:50:44;;;;;;;16.90;8.52;;;;;;;-3.23;74.66;97543.00;5099220;28;20084;-65
2022/01/09 08:53:31;;;;;;;19.67;8.95;;;;;;;-3.27;74.56;97547.41;5093203;28;20502;-65
2022/01/09 08:56:22;;;;;;;20.90;9.77;;;;;;;-3.43;75.44;97530.84;5092009;28;20059;-65
2022/01/09 08:59:07;;;;;;;17.15;8.18;;;;;;;-3.34;75.14;97551.03;5093623;28;20504;-65
2022/01/09 09:01:54;;;;;;;17.88;8.45;;;;;;;-3.30;75.13;97551.78;5083688;28;20428;-64
2022/01/09 09:04:39;;;;;;;19.77;9.07;;;;;;;-3.23;75.24;97550.69;5092776;28;20051;-64
2022/01/09 09:07:25;;;;;;;16.50;7.72;;;;;;;-2.93;74.67;97545.47;5097711;28;20047;-64
2022/01/09 09:10:12;;;;;;;16.50;8.85;;;;;;;-3.06;73.63;97549.31;5093252;28;20055;-64
2022/01/09 09:12:58;;;;;;;19.20;8.48;;;;;;;-3.20;74.36;97532.69;5092877;28;20114;-66
2022/01/09 09:15:44;;;;;;;18.15;9.32;;;;;;;-2.93;73.69;97537.78;5092570;28;20399;-65
2022/01/09 09:18:30;;;;;;;16.42;9.13;;;;;;;-3.14;74.12;97531.63;5083182;28;20055;-65
2022/01/09 09:21:16;;;;;;;18.10;7.95;;;;;;;-3.05;74.48;97530.50;5091428;28;20407;-64
2022/01/09 09:24:03;;;;;;;20.50;8.90;;;;;;;-3.12;74.40;97545.25;5077562;28;20348;-65
2022/01/09 09:26:48;;;;;;;17.25;8.48;;;;;;;-3.07;74.55;97550.22;5092733;28;20063;-66
2022/01/09 09:29:34;;;;;;;18.38;9.05;;;;;;;-2.62;73.84;97547.00;5092936;28;20063;-64
2022/01/09 09:32:21;;;;;;;15.82;8.05;;;;;;;-2.80;72.73;97545.91;5077599;28;20063;-65
2022/01/09 09:35:07;;;;;;;17.83;8.35;;;;;;;-2.68;73.11;97547.22;5093514;28;20051;-65
2022/01/09 09:37:53;;;;;;;17.55;8.63;;;;;;;-2.70;72.89;97541.28;5096296;28;20063;-65
2022/01/09 09:40:40;;;;;;;17.75;8.95;;;;;;;-2.95;73.71;97537.00;5095082;28;20055;-65
2022/01/09 09:43:26;;;;;;;18.67;8.18;;;;;;;-2.79;74.08;97552.69;5096322;28;20581;-65
2022/01/09 09:46:13;;;;;;;18.45;8.38;;;;;;;-2.60;73.08;97552.09;5095818;28;20056;-65
2022/01/09 09:48:59;;;;;;;17.10;8.48;;;;;;;-2.55;73.04;97555.34;5094969;28;20055;-65
2022/01/09 09:51:45;;;;;;;20.13;9.13;;;;;;;-2.62;73.49;97544.44;5100897;28;20072;-64
2022/01/09 09:54:31;;;;;;;14.60;7.72;;;;;;;-2.57;74.36;97566.50;5095691;28;20051;-64
2022/01/09 09:57:17;;;;;;;19.40;9.77;;;;;;;-2.89;75.20;97548.78;5094836;28;20504;-65
2022/01/09 10:00:22;;;;;;;16.25;9.05;;;;;;;-2.87;75.11;97549.53;5095949;28;20051;-64
2022/01/09 10:03:08;;;;;;;21.35;8.20;;;;;;;-2.80;75.08;97556.16;5095702;28;20048;-65
2022/01/09 10:05:55;;;;;;;16.73;8.30;;;;;;;-2.74;75.40;97562.78;5094758;28;20139;-65
2022/01/09 10:09:09;;;;;;;17.60;8.35;;;;;;;-2.69;74.30;97553.22;5095623;28;20051;-65
2022/01/09 10:12:01;;;;;;;20.40;8.85;;;;;;;-2.68;74.41;97554.91;5095423;28;20059;-65
2022/01/09 10:14:53;;;;;;;17.67;8.27;;;;;;;-2.56;74.57;97540.00;5095627;28;20059;-65
2022/01/09 10:17:52;;;;;;;17.08;8.95;;;;;;;-2.67;74.90;97535.22;5095578;28;20051;-64
2022/01/09 10:20:39;;;;;;;16.95;7.78;;;;;;;-2.69;75.09;97530.13;5100481;28;20055;-65
2022/01/09 10:23:24;;;;;;;18.77;9.35;;;;;;;-2.90;76.08;97514.59;5095377;28;20047;-64
2022/01/09 10:26:11;;;;;;;19.15;9.02;;;;;;;-2.84;77.32;97523.84;5095169;28;20063;-64
2022/01/09 10:28:58;;;;;;;18.35;7.97;;;;;;;-2.57;76.14;97543.44;5095277;28;20071;-64
2022/01/09 10:31:53;;;;;;;19.10;8.93;;;;;;;-2.19;74.51;97518.16;5094444;28;20051;-66
2022/01/09 10:34:39;;;;;;;20.33;10.38;;;;;;;-2.60;75.54;97511.88;5095140;28;20481;-64
2022/01/09 10:37:25;;;;;;;17.33;8.00;;;;;;;-2.55;77.69;97537.38;5095072;28;20055;-65
2022/01/09 10:40:19;;;;;;;21.17;9.70;;;;;;;-2.44;77.19;97560.06;5093854;28;20051;-63
2022/01/09 10:43:07;;;;;;;17.67;8.65;;;;;;;-2.23;76.73;97537.09;5094793;28;20107;-65
2022/01/09 10:45:59;;;;;;;19.27;8.73;;;;;;;-1.81;75.70;97533.00;5094770;28;20071;-65
2022/01/09 10:48:45;;;;;;;16.45;8.50;;;;;;;-1.82;76.12;97530.50;5094695;28;20051;-64
2022/01/09 10:51:32;;;;;;;17.40;8.45;;;;;;;-2.07;75.58;97516.84;5093990;28;20051;-63
2022/01/09 10:54:31;;;;;;;20.80;8.88;;;;;;;-1.95;75.74;97536.09;5099749;28;20102;-64
2022/01/09 10:57:38;;;;;;;22.83;9.20;;;;;;;-2.09;76.13;97543.47;5093592;28;20094;-64
2022/01/09 11:00:24;;;;;;;20.67;9.35;;;;;;;-1.98;76.75;97539.63;5093579;28;20403;-64
2022/01/09 11:03:09;;;;;;;23.88;10.02;;;;;;;-1.84;76.66;97542.59;5094354;28;20047;-64
2022/01/09 11:05:55;;;;;;;19.67;8.95;;;;;;;-1.73;74.19;97559.25;5094497;28;20051;-64
2022/01/09 11:08:45;;;;;;;18.80;9.18;;;;;;;-1.96;75.15;97541.31;5094201;28;20502;-64
2022/01/09 11:11:36;;;;;;;26.95;9.32;;;;;;;-2.03;76.48;97536.41;5094679;28;20051;-65
2022/01/09 11:14:24;;;;;;;19.10;8.90;;;;;;;-2.06;77.98;97539.06;5094144;28;20114;-64
2022/01/09 11:17:10;;;;;;;22.67;10.50;;;;;;;-2.22;77.37;97523.41;5094231;28;20545;-65
2022/01/09 11:19:56;;;;;;;26.08;10.88;;;;;;;-2.15;77.29;97532.53;5094303;28;20051;-65
2022/01/09 11:22:43;;;;;;;19.45;9.40;;;;;;;-2.00;77.62;97543.13;5094415;28;20471;-65
2022/01/09 11:25:37;;;;;;;19.17;8.90;;;;;;;-1.47;75.80;97538.59;5094319;28;20510;-64
2022/01/09 11:28:27;;;;;;;17.63;9.02;;;;;;;-1.88;77.59;97534.16;5079188;28;20059;-64
2022/01/09 11:31:36;;;;;;;19.88;9.13;;;;;;;-2.05;78.97;97535.59;5093951;28;20063;-66
2022/01/09 11:34:40;;;;;;;19.17;8.75;;;;;;;-1.83;78.78;97532.25;5094379;28;20066;-65
2022/01/09 11:38:03;;;;;;;23.83;9.75;;;;;;;-1.59;77.98;97536.50;5098868;28;20051;-65
2022/01/09 11:40:50;;;;;;;19.27;9.45;;;;;;;-1.71;79.92;97533.50;5092808;28;20111;-64
2022/01/09 11:43:51;;;;;;;20.08;9.57;;;;;;;-2.03;81.04;97526.13;5093425;28;20047;-63
2022/01/09 11:46:59;;;;;;;18.65;9.55;;;;;;;-1.83;82.14;97529.69;5093352;28;20054;-64
2022/01/09 11:49:53;;;;;;;18.75;10.10;;;;;;;-1.63;79.02;97531.47;5093534;28;20044;-65
2022/01/09 11:53:08;;;;;;;28.77;13.27;;;;;;;-1.46;79.97;97539.41;5093686;28;20510;-65
2022/01/09 11:55:54;;;;;;;23.95;11.38;;;;;;;-1.35;81.31;97529.56;5052904;28;20071;-65
2022/01/09 11:58:40;;;;;;;19.90;9.98;;;;;;;-1.51;78.82;97526.75;5072736;28;20499;-65
2022/01/09 12:01:36;;;;;;;25.23;11.25;;;;;;;-1.44;82.55;97541.06;5073187;28;20056;-64
2022/01/09 12:04:30;;;;;;;24.90;11.07;;;;;;;-1.83;82.32;97531.41;5072970;28;20059;-65
2022/01/09 12:07:32;;;;;;;23.45;10.70;;;;;;;-1.84;83.21;97530.56;5073068;28;20044;-65
2022/01/09 12:10:17;;;;;;;22.67;10.45;;;;;;;-1.69;81.26;97538.56;5073188;28;20538;-65
2022/01/09 12:13:05;;;;;;;24.75;10.20;;;;;;;-1.91;82.23;97529.94;5073240;28;20056;-64
2022/01/09 12:15:51;;;;;;;24.25;10.95;;;;;;;-1.72;82.81;97539.53;5038181;28;20060;-65
2022/01/09 12:18:45;;;;;;;22.65;9.48;;;;;;;-1.63;82.48;97531.47;5032687;28;20042;-64
2022/01/09 12:21:40;;;;;;;23.38;10.15;;;;;;;-1.69;82.10;97531.72;5033254;28;20056;-64
2022/01/09 12:24:40;;;;;;;21.05;11.23;;;;;;;-1.56;82.51;97524.38;5032348;28;20064;-64
2022/01/09 12:27:35;;;;;;;22.13;10.15;;;;;;;-1.53;81.68;97541.38;5032962;28;20053;-64
2022/01/09 12:30:33;;;;;;;22.85;11.05;;;;;;;-1.59;83.11;97531.34;5037683;28;20052;-64
2022/01/09 12:33:22;;;;;;;24.20;10.20;;;;;;;-1.50;83.39;97543.84;5032828;28;20056;-63
2022/01/09 12:36:13;;;;;;;24.20;9.90;;;;;;;-1.69;83.93;97549.69;5032682;28;20053;-64
2022/01/09 12:39:03;;;;;;;21.95;10.05;;;;;;;-1.78;84.10;97553.44;5032790;28;20056;-64
2022/01/09 12:41:54;;;;;;;22.27;9.50;;;;;;;-1.84;87.31;97537.44;5024181;28;20056;-64
2022/01/09 12:44:53;;;;;;;22.92;10.55;;;;;;;-1.81;85.61;97561.25;5033174;28;20068;-64
2022/01/09 12:47:40;;;;;;;27.30;11.55;;;;;;;-1.59;89.01;97544.19;5037618;28;20059;-64
2022/01/09 12:50:35;;;;;;;19.23;9.48;;;;;;;-1.73;85.99;97555.84;5032086;28;20057;-64
2022/01/09 12:53:29;;;;;;;23.40;10.73;;;;;;;-1.67;87.22;97557.34;5040617;28;20064;-64
2022/01/09 12:56:18;;;;;;;20.80;9.68;;;;;;;-1.78;87.72;97543.16;5043500;28;20075;-64